Time;durP1;ratioP1;P1;durP2;ratioP2;P2;SDS_P1;SDS_P2;PMS_P1;PMS_P2;Temp;Humidity;BMP_temperature;BMP_pressure;BME280_temperature;BME280_humidity;BME280_pressure;Samples;Min_cycle;Max_cycle;Signal;HPM_P1;HPM_P2
2021/09/18 00:00:59;;;;;;;6.83;5.50;;;11.10;99.90;;;;;;5019415;28;20269;-81
2021/09/18 00:03:25;;;;;;;6.03;5.43;;;11.00;99.90;;;;;;5019472;28;20309;-81
2021/09/18 00:05:50;;;;;;;8.43;6.40;;;11.00;99.90;;;;;;5020719;28;20191;-81
2021/09/18 00:08:16;;;;;;;6.63;5.33;;;10.90;99.90;;;;;;5020581;28;20167;-81
2021/09/18 00:10:42;;;;;;;6.10;5.37;;;10.90;99.90;;;;;;5020269;28;20225;-81
2021/09/18 00:13:08;;;;;;;9.30;5.57;;;10.90;99.90;;;;;;5019307;28;20183;-81
2021/09/18 00:15:34;;;;;;;6.83;5.37;;;10.80;99.90;;;;;;5020517;28;20175;-81
2021/09/18 00:18:00;;;;;;;7.63;5.80;;;10.80;99.90;;;;;;5019437;28;20190;-81
2021/09/18 00:20:25;;;;;;;8.10;5.90;;;10.70;99.90;;;;;;5018925;28;20207;-81
2021/09/18 00:22:51;;;;;;;7.50;6.10;;;10.70;99.90;;;;;;5020100;28;20183;-81
2021/09/18 00:25:17;;;;;;;8.07;6.93;;;10.70;99.90;;;;;;5019266;28;20182;-81
2021/09/18 00:27:42;;;;;;;8.00;6.30;;;10.70;99.90;;;;;;5021108;28;20187;-81
2021/09/18 00:30:08;;;;;;;9.60;6.40;;;10.70;99.90;;;;;;5019374;28;20269;-81
2021/09/18 00:32:34;;;;;;;6.83;5.50;;;10.70;99.90;;;;;;5019593;28;20231;-81
2021/09/18 00:35:00;;;;;;;6.33;5.43;;;10.70;99.90;;;;;;5019636;28;20206;-81
2021/09/18 00:37:25;;;;;;;7.33;5.93;;;10.70;99.90;;;;;;5020702;28;20194;-81
2021/09/18 00:39:51;;;;;;;6.93;6.00;;;10.70;99.90;;;;;;5021307;28;20226;-81
2021/09/18 00:42:17;;;;;;;8.60;6.23;;;10.70;99.90;;;;;;5020787;28;20225;-81
2021/09/18 00:44:42;;;;;;;8.83;5.67;;;10.70;99.90;;;;;;5019342;28;20178;-81
2021/09/18 00:47:08;;;;;;;9.43;5.63;;;10.60;99.90;;;;;;5020707;28;20195;-81
2021/09/18 00:49:34;;;;;;;7.60;5.87;;;10.60;99.90;;;;;;5019117;28;20305;-81
2021/09/18 00:52:00;;;;;;;7.23;5.93;;;10.50;99.90;;;;;;5020491;28;20286;-81
2021/09/18 00:54:26;;;;;;;10.77;6.23;;;10.50;99.90;;;;;;5032406;28;20229;-81
2021/09/18 00:56:54;;;;;;;7.33;6.00;;;10.50;99.90;;;;;;5033312;28;20295;-81
2021/09/18 00:59:23;;;;;;;7.10;5.83;;;10.40;99.90;;;;;;5024838;28;20211;-81
2021/09/18 01:01:48;;;;;;;10.03;6.97;;;10.40;99.90;;;;;;5020059;28;20175;-81
2021/09/18 01:04:18;;;;;;;10.57;6.00;;;10.40;99.90;;;;;;5017344;28;20541;-80
2021/09/18 01:06:45;;;;;;;7.50;6.10;;;10.30;99.90;;;;;;5018295;28;20282;-81
2021/09/18 01:09:11;;;;;;;7.47;6.37;;;10.30;99.90;;;;;;5018880;28;20643;-81
2021/09/18 01:11:37;;;;;;;10.37;5.77;;;10.30;99.90;;;;;;5018250;28;20180;-84
2021/09/18 01:14:03;;;;;;;8.57;5.87;;;10.20;99.90;;;;;;5019363;28;20213;-81
2021/09/18 01:16:28;;;;;;;9.90;6.43;;;10.20;99.90;;;;;;5019299;28;20199;-81
2021/09/18 01:18:54;;;;;;;7.17;6.03;;;10.20;99.90;;;;;;5018129;28;20717;-81
2021/09/18 01:21:20;;;;;;;7.70;5.43;;;10.20;99.90;;;;;;5018265;28;20246;-81
2021/09/18 01:23:46;;;;;;;11.20;7.17;;;10.20;99.90;;;;;;5019397;28;20202;-81
2021/09/18 01:26:11;;;;;;;10.97;7.80;;;10.20;99.90;;;;;;5019676;28;20187;-81
2021/09/18 01:28:39;;;;;;;13.07;8.87;;;10.20;99.90;;;;;;5020149;28;20178;-81
2021/09/18 01:31:05;;;;;;;11.93;8.40;;;10.30;99.90;;;;;;5020261;28;20171;-81
2021/09/18 01:33:31;;;;;;;12.27;8.83;;;10.40;99.90;;;;;;5018910;28;20180;-81
2021/09/18 01:35:57;;;;;;;16.13;9.03;;;10.40;99.90;;;;;;5020439;28;20736;-81
2021/09/18 01:38:22;;;;;;;14.73;9.47;;;10.40;99.90;;;;;;5017992;28;20179;-81
2021/09/18 01:40:48;;;;;;;14.27;9.03;;;10.40;99.90;;;;;;5017454;28;20668;-81
2021/09/18 01:43:15;;;;;;;10.23;7.13;;;10.40;99.90;;;;;;5016251;28;20256;-81
2021/09/18 01:45:41;;;;;;;7.77;6.10;;;10.50;99.90;;;;;;5016907;28;20205;-81
2021/09/18 01:48:10;;;;;;;8.60;6.20;;;10.50;99.90;;;;;;5020423;28;20179;-81
2021/09/18 01:50:51;;;;;;;6.93;6.07;;;10.50;99.90;;;;;;5019302;28;20175;-80
2021/09/18 01:53:19;;;;;;;7.93;5.80;;;10.40;99.90;;;;;;5018768;28;20160;-80
2021/09/18 01:55:46;;;;;;;6.63;5.70;;;10.40;99.90;;;;;;5017071;28;20206;-80
2021/09/18 01:58:12;;;;;;;7.40;5.67;;;10.40;99.90;;;;;;5018492;28;20183;-80
2021/09/18 02:00:44;;;;;;;9.07;5.57;;;10.40;99.90;;;;;;5017128;28;20213;-80
2021/09/18 02:03:10;;;;;;;9.13;6.27;;;10.40;99.90;;;;;;5023270;28;20174;-81
2021/09/18 02:05:36;;;;;;;12.83;5.50;;;10.30;99.90;;;;;;5023179;28;20184;-81
2021/09/18 02:08:02;;;;;;;7.73;5.97;;;10.30;99.90;;;;;;5021683;28;20186;-81
2021/09/18 02:10:30;;;;;;;7.87;6.57;;;10.30;99.90;;;;;;5021424;28;20191;-81
2021/09/18 02:12:57;;;;;;;7.33;5.93;;;10.30;99.90;;;;;;5021877;28;20184;-81
2021/09/18 02:15:23;;;;;;;8.23;6.37;;;10.30;99.90;;;;;;5021485;28;20194;-81
2021/09/18 02:17:50;;;;;;;8.83;6.57;;;10.30;99.90;;;;;;5023303;28;20258;-81
2021/09/18 02:20:21;;;;;;;9.00;5.70;;;10.30;99.90;;;;;;5022987;28;20198;-81
2021/09/18 02:22:47;;;;;;;6.90;6.00;;;10.40;99.90;;;;;;5022786;28;20596;-81
2021/09/18 02:25:13;;;;;;;8.20;6.93;;;10.40;99.90;;;;;;5021588;28;20178;-81
2021/09/18 02:27:40;;;;;;;8.67;5.83;;;10.40;99.90;;;;;;5022550;28;20229;-81
2021/09/18 02:30:08;;;;;;;7.03;5.80;;;10.40;99.90;;;;;;5022852;28;20175;-81
2021/09/18 02:32:35;;;;;;;6.20;5.60;;;10.40;99.90;;;;;;5020873;28;20191;-81
2021/09/18 02:35:05;;;;;;;11.63;6.07;;;10.40;99.90;;;;;;5021051;28;20182;-81
2021/09/18 02:37:31;;;;;;;7.17;5.23;;;10.40;99.90;;;;;;5022100;28;20722;-81
2021/09/18 02:39:57;;;;;;;9.87;6.00;;;10.40;99.90;;;;;;5022087;28;20281;-81
2021/09/18 02:42:22;;;;;;;7.13;6.20;;;10.40;99.90;;;;;;5020231;28;20249;-81
2021/09/18 02:44:48;;;;;;;8.73;6.03;;;10.40;99.90;;;;;;5020433;28;20185;-81
2021/09/18 02:47:14;;;;;;;8.67;5.67;;;10.40;99.90;;;;;;5020876;28;20629;-81
2021/09/18 02:49:39;;;;;;;6.70;5.60;;;10.40;99.90;;;;;;5028062;28;20185;-82
2021/09/18 02:52:05;;;;;;;11.47;6.17;;;10.50;99.90;;;;;;5021670;28;20182;-81
2021/09/18 02:54:31;;;;;;;11.10;5.53;;;10.50;99.90;;;;;;5022164;28;20186;-81
2021/09/18 02:56:57;;;;;;;6.77;5.60;;;;;;;;;;5020987;28;20191;-81
2021/09/18 02:59:22;;;;;;;8.90;6.73;;;10.50;99.90;;;;;;5021025;28;20202;-81
2021/09/18 03:01:48;;;;;;;7.27;6.50;;;;;;;;;;5021351;28;20182;-81
2021/09/18 03:04:14;;;;;;;7.33;5.80;;;10.60;99.90;;;;;;5020715;28;20171;-81
2021/09/18 03:06:40;;;;;;;8.00;6.30;;;;;;;;;;5019596;28;20226;-80
2021/09/18 03:09:06;;;;;;;9.60;6.60;;;10.60;99.90;;;;;;5020102;28;20242;-80
2021/09/18 03:11:31;;;;;;;12.10;6.73;;;10.60;99.90;;;;;;5021058;28;20203;-80
2021/09/18 03:13:57;;;;;;;11.30;7.23;;;10.60;99.90;;;;;;5020707;28;20187;-81
2021/09/18 03:16:23;;;;;;;8.83;6.80;;;10.60;99.90;;;;;;5020679;28;20198;-80
2021/09/18 03:18:48;;;;;;;8.70;6.50;;;10.70;99.90;;;;;;5022006;28;20175;-81
2021/09/18 03:21:14;;;;;;;8.47;7.03;;;10.70;99.90;;;;;;5021600;28;20178;-80
2021/09/18 03:23:39;;;;;;;10.13;6.00;;;10.80;99.90;;;;;;5022070;28;20187;-80
2021/09/18 03:26:05;;;;;;;8.07;6.07;;;10.80;99.90;;;;;;5018800;28;20289;-80
2021/09/18 03:28:31;;;;;;;8.20;6.53;;;10.70;99.90;;;;;;5021879;28;20275;-82
2021/09/18 03:30:57;;;;;;;10.50;6.37;;;10.70;99.90;;;;;;5022796;28;20182;-81
2021/09/18 03:33:23;;;;;;;8.20;6.87;;;10.70;99.90;;;;;;5021054;28;20719;-81
2021/09/18 03:35:50;;;;;;;9.20;6.57;;;10.70;99.90;;;;;;5020878;28;20206;-81
2021/09/18 03:38:15;;;;;;;7.83;6.67;;;10.70;99.90;;;;;;5020649;28;20682;-81
2021/09/18 03:40:41;;;;;;;7.57;6.60;;;10.80;99.90;;;;;;5020831;28;20195;-81
2021/09/18 03:43:06;;;;;;;8.90;6.53;;;10.80;99.90;;;;;;5020132;28;20546;-81
2021/09/18 03:45:32;;;;;;;9.10;6.63;;;;;;;;;;5020491;28;20546;-82
2021/09/18 03:47:58;;;;;;;6.93;5.87;;;10.90;99.90;;;;;;5020112;28;20187;-82
2021/09/18 03:50:24;;;;;;;8.27;6.23;;;10.90;99.90;;;;;;5020040;28;20190;-81
2021/09/18 03:52:49;;;;;;;7.43;5.63;;;10.80;99.90;;;;;;5019508;28;20570;-81
2021/09/18 03:55:15;;;;;;;7.87;6.17;;;10.80;99.90;;;;;;5020661;28;20213;-81
2021/09/18 03:57:41;;;;;;;7.47;5.80;;;10.80;99.90;;;;;;5021501;28;20251;-82
2021/09/18 04:00:07;;;;;;;6.93;6.10;;;10.90;99.90;;;;;;5021500;28;20206;-80
2021/09/18 04:02:33;;;;;;;9.00;6.73;;;10.90;99.90;;;;;;5022031;28;20633;-81
2021/09/18 04:04:59;;;;;;;6.73;5.27;;;10.90;99.90;;;;;;5020989;28;20187;-81
2021/09/18 04:07:24;;;;;;;7.30;6.00;;;10.90;99.90;;;;;;5020366;28;20262;-81
2021/09/18 04:09:50;;;;;;;9.30;6.57;;;10.90;99.90;;;;;;5018569;28;20220;-81
2021/09/18 04:12:16;;;;;;;9.23;6.90;;;10.90;99.90;;;;;;5018575;28;20644;-81
2021/09/18 04:14:42;;;;;;;8.00;6.37;;;10.90;99.90;;;;;;5020469;28;20189;-81
2021/09/18 04:17:07;;;;;;;8.93;6.67;;;10.90;99.90;;;;;;5018916;28;20202;-81
2021/09/18 04:19:33;;;;;;;9.60;7.20;;;10.90;99.90;;;;;;5019644;28;20206;-81
2021/09/18 04:22:00;;;;;;;13.33;8.13;;;10.90;99.90;;;;;;5019950;28;20206;-81
2021/09/18 04:24:26;;;;;;;8.17;6.70;;;10.90;99.90;;;;;;5020075;28;20225;-81
2021/09/18 04:26:52;;;;;;;7.70;6.33;;;10.80;99.90;;;;;;5018854;28;20219;-81
2021/09/18 04:29:17;;;;;;;8.20;6.73;;;10.70;99.90;;;;;;5018848;28;20182;-81
2021/09/18 04:31:43;;;;;;;8.40;6.17;;;10.70;99.90;;;;;;5018658;28;20178;-81
2021/09/18 04:34:09;;;;;;;10.00;6.60;;;10.70;99.90;;;;;;5016326;28;20183;-81
2021/09/18 04:36:35;;;;;;;8.27;5.63;;;10.60;99.90;;;;;;5016623;28;20234;-81
2021/09/18 04:39:01;;;;;;;8.43;6.07;;;10.60;99.90;;;;;;5014931;28;20191;-81
2021/09/18 04:41:26;;;;;;;14.10;7.10;;;10.50;99.90;;;;;;5015600;28;20181;-81
2021/09/18 04:43:53;;;;;;;8.40;7.13;;;10.50;99.90;;;;;;5015402;28;20173;-80
2021/09/18 04:46:19;;;;;;;10.17;7.07;;;10.40;99.90;;;;;;5013918;28;20195;-81
2021/09/18 04:48:45;;;;;;;9.13;7.20;;;10.30;99.90;;;;;;5015520;28;20274;-81
2021/09/18 04:51:11;;;;;;;9.37;7.03;;;10.30;99.90;;;;;;5021029;28;20203;-81
2021/09/18 04:53:37;;;;;;;8.40;6.63;;;10.30;99.90;;;;;;5019752;28;20183;-81
2021/09/18 04:56:03;;;;;;;7.87;6.70;;;10.20;99.90;;;;;;5021772;28;20203;-81
2021/09/18 04:58:30;;;;;;;11.17;6.67;;;10.20;99.90;;;;;;5022048;28;20182;-81
2021/09/18 05:00:56;;;;;;;7.60;6.57;;;10.20;99.90;;;;;;5018574;28;20230;-81
2021/09/18 05:03:22;;;;;;;13.23;6.90;;;10.10;99.90;;;;;;5019073;28;20208;-81
2021/09/18 05:05:48;;;;;;;9.40;7.47;;;10.10;99.90;;;;;;5020129;28;20191;-81
2021/09/18 05:08:14;;;;;;;10.10;7.73;;;10.10;99.90;;;;;;5018547;28;20185;-81
2021/09/18 05:10:39;;;;;;;8.63;7.33;;;10.00;99.90;;;;;;5020473;28;20181;-81
2021/09/18 05:13:05;;;;;;;9.57;7.40;;;10.00;99.90;;;;;;5019717;28;20194;-83
2021/09/18 05:15:31;;;;;;;9.63;7.43;;;10.00;99.90;;;;;;5020085;28;20206;-82
2021/09/18 05:17:57;;;;;;;7.67;6.23;;;10.10;99.90;;;;;;5021101;28;20229;-81
2021/09/18 05:20:22;;;;;;;10.57;7.37;;;10.10;99.90;;;;;;5020822;28;20228;-81
2021/09/18 05:22:48;;;;;;;10.40;7.07;;;10.10;99.90;;;;;;5018430;28;20247;-81
2021/09/18 05:25:14;;;;;;;11.27;7.57;;;10.00;99.90;;;;;;5019883;28;20268;-81
2021/09/18 05:27:40;;;;;;;10.33;7.93;;;10.10;99.90;;;;;;5018530;28;20278;-81
2021/09/18 05:30:07;;;;;;;10.33;7.00;;;10.10;99.90;;;;;;5019913;28;20175;-81
2021/09/18 05:32:33;;;;;;;9.97;7.20;;;10.10;99.90;;;;;;5019536;28;20175;-81
2021/09/18 05:34:59;;;;;;;8.67;6.60;;;10.20;99.90;;;;;;5018258;28;20185;-81
2021/09/18 05:37:25;;;;;;;8.43;6.37;;;10.10;99.90;;;;;;5019446;28;20281;-82
2021/09/18 05:39:51;;;;;;;7.60;6.60;;;10.20;99.90;;;;;;5018223;28;20210;-81
2021/09/18 05:42:17;;;;;;;8.27;6.57;;;10.30;99.90;;;;;;5019901;28;20180;-81
2021/09/18 05:44:43;;;;;;;7.33;6.30;;;10.30;99.90;;;;;;5019212;28;20181;-81
2021/09/18 05:47:08;;;;;;;8.50;6.63;;;10.30;99.90;;;;;;5018655;28;20218;-82
2021/09/18 05:49:34;;;;;;;9.00;6.30;;;10.40;99.90;;;;;;5018439;28;20616;-81
2021/09/18 05:52:00;;;;;;;7.47;6.13;;;10.40;99.90;;;;;;5019525;28;20183;-81
2021/09/18 05:54:27;;;;;;;10.20;7.27;;;10.40;99.90;;;;;;5019870;28;20174;-81
2021/09/18 05:56:53;;;;;;;10.17;7.73;;;10.50;99.90;;;;;;5018656;28;20204;-82
2021/09/18 05:59:19;;;;;;;11.40;7.17;;;10.50;99.90;;;;;;5018749;28;20201;-82
2021/09/18 06:01:45;;;;;;;8.63;6.67;;;10.60;99.90;;;;;;5018137;28;20281;-81
2021/09/18 06:04:10;;;;;;;10.73;6.83;;;10.60;99.90;;;;;;5018469;28;20194;-82
2021/09/18 06:06:36;;;;;;;7.77;6.20;;;10.60;99.90;;;;;;5017963;28;20199;-82
2021/09/18 06:09:02;;;;;;;7.77;6.30;;;10.60;99.90;;;;;;5019559;28;20180;-82
2021/09/18 06:11:28;;;;;;;8.00;6.07;;;10.70;99.90;;;;;;5019222;28;20178;-82
2021/09/18 06:13:54;;;;;;;6.77;5.57;;;10.60;99.90;;;;;;5018290;28;20183;-82
2021/09/18 06:16:20;;;;;;;6.83;5.70;;;10.60;99.90;;;;;;5021481;28;20194;-82
2021/09/18 06:18:45;;;;;;;7.27;6.23;;;10.70;99.90;;;;;;5020242;28;20540;-82
2021/09/18 06:21:11;;;;;;;6.73;5.60;;;10.70;99.90;;;;;;5019438;28;20582;-82
2021/09/18 06:23:37;;;;;;;6.93;5.70;;;10.70;99.90;;;;;;5020324;28;20174;-81
2021/09/18 06:26:07;;;;;;;7.33;6.03;;;10.80;99.90;;;;;;5018523;28;20683;-81
2021/09/18 06:28:34;;;;;;;8.87;7.07;;;10.90;99.90;;;;;;5018817;28;20198;-81
2021/09/18 06:31:02;;;;;;;8.17;6.63;;;10.90;99.90;;;;;;5018677;28;20190;-81
2021/09/18 06:33:28;;;;;;;9.67;7.20;;;10.90;99.90;;;;;;5020175;28;20660;-81
2021/09/18 06:35:54;;;;;;;7.53;6.53;;;11.00;99.90;;;;;;5021567;28;20281;-81
2021/09/18 06:38:23;;;;;;;9.57;6.90;;;11.10;99.90;;;;;;5022383;28;20234;-81
2021/09/18 06:40:54;;;;;;;9.60;6.97;;;11.20;99.90;;;;;;5021398;28;20195;-81
2021/09/18 06:43:21;;;;;;;9.13;6.63;;;11.20;99.90;;;;;;5021765;28;20179;-81
2021/09/18 06:45:48;;;;;;;11.30;6.23;;;11.30;99.90;;;;;;5020916;28;20295;-81
2021/09/18 06:48:14;;;;;;;7.80;6.53;;;11.40;99.90;;;;;;5024106;28;20184;-82
2021/09/18 06:50:40;;;;;;;8.13;7.10;;;11.50;99.90;;;;;;5022867;28;20185;-82
2021/09/18 06:53:07;;;;;;;9.67;7.07;;;11.60;99.90;;;;;;5024346;28;20179;-82
2021/09/18 06:55:33;;;;;;;8.97;6.97;;;11.90;99.90;;;;;;5022069;28;20179;-81
2021/09/18 06:58:00;;;;;;;11.77;7.27;;;11.90;99.90;;;;;;5018895;28;20233;-81
2021/09/18 07:00:27;;;;;;;8.90;7.10;;;12.00;99.90;;;;;;5019155;28;20245;-82
2021/09/18 07:02:53;;;;;;;11.97;6.60;;;12.10;99.90;;;;;;5021820;28;20198;-82
2021/09/18 07:05:19;;;;;;;7.80;7.00;;;;;;;;;;5018345;28;20177;-81
2021/09/18 07:07:47;;;;;;;12.43;7.60;;;12.50;99.90;;;;;;5016339;28;20239;-81
2021/09/18 07:10:14;;;;;;;9.57;7.20;;;12.60;99.90;;;;;;5019586;28;20178;-82
2021/09/18 07:12:40;;;;;;;8.20;6.37;;;12.70;99.90;;;;;;5021484;28;20178;-82
2021/09/18 07:15:07;;;;;;;8.20;6.77;;;12.80;99.90;;;;;;5021421;28;20206;-82
2021/09/18 07:17:33;;;;;;;9.40;6.43;;;12.90;99.90;;;;;;5021966;28;20273;-82
2021/09/18 07:19:59;;;;;;;8.23;6.67;;;13.10;99.90;;;;;;5020958;28;20249;-82
2021/09/18 07:22:25;;;;;;;10.10;6.13;;;13.20;99.90;;;;;;5019645;28;20175;-82
2021/09/18 07:24:51;;;;;;;7.83;5.90;;;13.30;99.90;;;;;;5020300;28;20216;-82
2021/09/18 07:27:17;;;;;;;10.33;5.97;;;13.40;99.90;;;;;;5019872;28;20200;-82
2021/09/18 07:29:47;;;;;;;7.93;6.10;;;13.50;99.90;;;;;;5017966;28;20185;-78
2021/09/18 07:32:13;;;;;;;8.57;6.27;;;13.60;99.90;;;;;;5022789;28;20175;-81
2021/09/18 07:34:39;;;;;;;6.93;5.70;;;13.80;99.90;;;;;;5026413;28;20174;-81
2021/09/18 07:37:05;;;;;;;9.20;6.17;;;14.00;99.90;;;;;;5028412;28;20695;-81
2021/09/18 07:39:31;;;;;;;7.00;5.50;;;14.20;99.90;;;;;;5028975;28;20211;-81
2021/09/18 07:41:58;;;;;;;6.90;6.10;;;14.30;99.90;;;;;;5026540;28;20171;-84
2021/09/18 07:44:24;;;;;;;7.17;5.77;;;14.50;99.90;;;;;;5023126;28;20338;-82
2021/09/18 07:46:50;;;;;;;5.67;4.47;;;14.60;99.90;;;;;;5024502;28;20252;-81
2021/09/18 07:49:17;;;;;;;7.43;5.47;;;14.80;99.90;;;;;;5022967;28;20729;-81
2021/09/18 07:51:43;;;;;;;6.37;5.47;;;14.90;99.90;;;;;;5022746;28;20186;-82
2021/09/18 07:54:09;;;;;;;6.03;5.43;;;15.20;99.90;;;;;;5023103;28;20225;-81
2021/09/18 07:56:36;;;;;;;5.40;4.90;;;15.50;99.90;;;;;;5024218;28;20230;-81
2021/09/18 07:59:02;;;;;;;7.77;4.93;;;16.10;99.90;;;;;;5025557;28;20631;-81
2021/09/18 08:01:30;;;;;;;10.43;4.50;;;16.60;99.90;;;;;;5022701;28;20224;-82
2021/09/18 08:03:59;;;;;;;4.93;4.43;;;17.40;99.90;;;;;;5019379;28;20174;-82
2021/09/18 08:06:26;;;;;;;5.07;4.40;;;18.10;99.90;;;;;;5021670;28;20242;-82
2021/09/18 08:08:52;;;;;;;4.87;4.37;;;19.70;99.90;;;;;;5021433;28;20171;-83
2021/09/18 08:11:19;;;;;;;4.93;4.13;;;19.50;99.90;;;;;;5021825;28;20212;-83
2021/09/18 08:13:46;;;;;;;5.73;4.50;;;19.80;99.90;;;;;;5021644;28;20574;-83
2021/09/18 08:16:12;;;;;;;5.80;5.20;;;20.50;99.90;;;;;;5021059;28;20590;-82
2021/09/18 08:18:38;;;;;;;6.27;4.87;;;20.40;99.90;;;;;;5018839;28;20643;-82
2021/09/18 08:21:04;;;;;;;6.57;5.20;;;20.90;99.90;;;;;;5020698;28;20201;-82
2021/09/18 08:23:30;;;;;;;5.00;4.50;;;21.30;99.90;;;;;;5018136;28;20212;-82
2021/09/18 08:25:56;;;;;;;5.50;5.00;;;21.30;99.90;;;;;;5018067;28;20209;-82
2021/09/18 08:28:22;;;;;;;7.50;5.73;;;21.30;99.90;;;;;;5017615;28;20194;-82
2021/09/18 08:30:47;;;;;;;7.03;5.50;;;21.20;99.90;;;;;;5019113;28;20213;-80
2021/09/18 08:33:13;;;;;;;6.27;5.67;;;21.30;99.90;;;;;;5017539;28;20179;-82
2021/09/18 08:35:39;;;;;;;6.87;5.83;;;21.30;99.90;;;;;;5017101;28;20237;-81
2021/09/18 08:38:04;;;;;;;7.43;4.40;;;21.20;99.90;;;;;;5018755;28;20181;-82
2021/09/18 08:40:36;;;;;;;4.77;4.37;;;21.60;99.90;;;;;;5019861;28;20205;-81
2021/09/18 08:43:02;;;;;;;5.13;4.63;;;21.80;99.90;;;;;;5017098;28;20210;-80
2021/09/18 08:45:29;;;;;;;5.60;5.10;;;21.80;99.90;;;;;;5017719;28;20190;-81
2021/09/18 08:47:56;;;;;;;5.60;4.57;;;21.80;99.90;;;;;;5018579;28;20168;-82
2021/09/18 08:50:22;;;;;;;5.17;4.67;;;22.00;99.90;;;;;;5018626;28;20179;-82
2021/09/18 08:52:49;;;;;;;6.93;4.53;;;22.00;99.90;;;;;;5018384;28;20183;-83
2021/09/18 08:55:15;;;;;;;6.23;4.77;;;22.00;99.90;;;;;;5017127;28;20266;-83
2021/09/18 08:57:42;;;;;;;5.10;4.60;;;21.90;99.90;;;;;;5018658;28;20229;-83
2021/09/18 09:00:29;;;;;;;4.57;4.17;;;21.80;99.90;;;;;;5018364;28;20234;-83
2021/09/18 09:02:55;;;;;;;4.23;3.90;;;22.00;99.90;;;;;;5018857;28;20177;-83
2021/09/18 09:05:26;;;;;;;4.10;3.70;;;22.00;99.90;;;;;;5019470;28;20168;-83
2021/09/18 09:08:08;;;;;;;4.03;3.67;;;22.10;99.90;;;;;;5018273;28;20633;-83
2021/09/18 09:10:35;;;;;;;4.27;3.43;;;22.20;99.90;;;;;;5018128;28;20176;-83
2021/09/18 09:13:12;;;;;;;3.23;2.90;;;22.20;99.90;;;;;;5020513;28;20178;-83
2021/09/18 09:15:38;;;;;;;3.90;3.50;;;22.10;99.90;;;;;;5018585;28;20199;-82
2021/09/18 09:18:14;;;;;;;3.90;3.50;;;22.20;99.90;;;;;;5018654;28;20219;-82
2021/09/18 09:20:40;;;;;;;3.90;3.50;;;22.20;99.90;;;;;;5017786;28;20238;-82
2021/09/18 09:23:18;;;;;;;4.80;3.23;;;22.40;99.90;;;;;;5019817;28;20180;-82
2021/09/18 09:25:49;;;;;;;4.30;2.93;;;22.30;99.90;;;;;;5019076;28;20193;-82
2021/09/18 09:28:24;;;;;;;4.13;2.87;;;22.50;99.90;;;;;;5019212;28;20181;-82
2021/09/18 09:30:50;;;;;;;3.40;3.10;;;22.50;99.90;;;;;;5019511;28;20177;-83
2021/09/18 09:33:16;;;;;;;3.10;2.80;;;22.30;99.90;;;;;;5018608;28;20182;-80
2021/09/18 09:35:43;;;;;;;4.67;3.20;;;22.30;99.90;;;;;;5019760;28;20556;-83
2021/09/18 09:38:09;;;;;;;2.80;2.50;;;22.30;99.90;;;;;;5020567;28;20261;-82
2021/09/18 09:40:44;;;;;;;3.60;3.30;;;22.50;99.90;;;;;;5022162;28;20284;-82
2021/09/18 09:43:12;;;;;;;3.33;2.67;;;22.80;99.90;;;;;;5019580;28;20663;-82
2021/09/18 09:45:39;;;;;;;4.17;2.67;;;22.70;99.90;;;;;;5016215;28;20183;-82
2021/09/18 09:48:12;;;;;;;3.83;3.10;;;22.70;99.90;;;;;;5019028;28;20170;-80
2021/09/18 09:50:40;;;;;;;2.70;2.50;;;22.70;99.90;;;;;;5017948;28;20660;-80
2021/09/18 09:53:27;;;;;;;3.70;3.20;;;22.80;99.90;;;;;;5021225;28;20202;-80
2021/09/18 09:55:53;;;;;;;2.93;2.63;;;22.90;99.90;;;;;;5021701;28;20203;-81
2021/09/18 09:58:19;;;;;;;4.13;3.40;;;23.10;99.90;;;;;;5017738;28;20234;-79
2021/09/18 10:00:50;;;;;;;3.50;3.20;;;23.10;99.90;;;;;;5022495;28;20253;-81
2021/09/18 10:03:19;;;;;;;2.93;2.73;;;23.20;99.90;;;;;;5025239;28;20202;-79
2021/09/18 10:05:45;;;;;;;4.27;3.87;;;23.30;99.90;;;;;;5019482;28;20195;-82
2021/09/18 10:08:13;;;;;;;4.57;3.97;;;23.40;99.90;;;;;;5027421;28;20172;-82
2021/09/18 10:10:40;;;;;;;3.50;3.20;;;23.20;99.90;;;;;;5035960;28;20183;-81
2021/09/18 10:13:08;;;;;;;3.30;3.00;;;23.30;99.90;;;;;;5038353;28;20163;-82
2021/09/18 10:15:34;;;;;;;3.97;3.63;;;23.50;99.90;;;;;;5032394;28;20234;-83
2021/09/18 10:18:02;;;;;;;4.67;4.07;;;23.80;99.90;;;;;;5025060;28;20187;-83
2021/09/18 10:23:15;;;;;;;5.73;3.93;;;23.80;99.90;;;;;;5025087;28;20271;-81
2021/09/18 10:25:44;;;;;;;4.17;3.80;;;23.20;99.90;;;;;;5024100;28;20204;-84
2021/09/18 10:28:19;;;;;;;4.47;3.73;;;23.10;99.90;;;;;;5024629;28;20613;-82
2021/09/18 10:30:54;;;;;;;4.17;3.60;;;23.30;99.90;;;;;;5026509;28;20203;-82
2021/09/18 10:33:31;;;;;;;3.20;2.90;;;23.40;99.90;;;;;;5026867;28;20270;-82
2021/09/18 10:36:11;;;;;;;3.43;3.03;;;23.60;99.90;;;;;;5024903;28;20202;-82
2021/09/18 10:38:46;;;;;;;4.27;3.43;;;23.90;99.90;;;;;;5026521;28;20180;-81
2021/09/18 10:41:24;;;;;;;5.73;3.37;;;24.00;99.90;;;;;;5025667;28;20324;-83
2021/09/18 10:43:59;;;;;;;4.20;2.27;;;24.00;99.90;;;;;;5026894;28;20182;-82
2021/09/18 10:46:49;;;;;;;2.33;2.13;;;24.10;99.90;;;;;;5026844;28;20214;-83
2021/09/18 10:49:36;;;;;;;3.83;2.10;;;24.40;99.90;;;;;;5026189;28;20264;-82
2021/09/18 10:52:17;;;;;;;2.37;2.17;;;24.90;98.80;;;;;;5024807;28;20194;-82
2021/09/18 10:55:10;;;;;;;2.00;1.80;;;24.80;99.90;;;;;;5025722;28;20202;-82
2021/09/18 10:57:38;;;;;;;2.37;2.13;;;24.60;98.60;;;;;;5024107;28;20215;-82
2021/09/18 11:00:08;;;;;;;2.60;2.30;;;25.00;99.10;;;;;;5024118;28;20207;-81
2021/09/18 11:02:33;;;;;;;2.57;2.17;;;25.00;99.90;;;;;;5024523;28;20305;-82
2021/09/18 11:05:10;;;;;;;2.40;2.20;;;25.20;99.90;;;;;;5022675;28;20203;-83
2021/09/18 11:07:39;;;;;;;2.23;2.03;;;25.40;95.80;;;;;;5024537;28;20202;-82
2021/09/18 11:10:16;;;;;;;3.93;2.40;;;25.50;96.50;;;;;;5024431;28;20187;-82
2021/09/18 11:13:01;;;;;;;2.90;2.60;;;25.30;97.10;;;;;;5024144;28;20651;-82
2021/09/18 11:15:37;;;;;;;2.53;2.00;;;25.80;91.50;;;;;;5024452;28;20180;-82
2021/09/18 11:18:07;;;;;;;2.57;2.37;;;25.70;93.40;;;;;;5027072;28;20159;-82
2021/09/18 11:20:35;;;;;;;2.80;2.60;;;25.60;94.10;;;;;;5026162;28;20233;-80
2021/09/18 11:23:00;;;;;;;2.47;2.27;;;25.60;94.60;;;;;;5026342;28;20205;-82
2021/09/18 11:25:34;;;;;;;2.57;2.37;;;26.40;92.80;;;;;;5026293;28;20186;-83
2021/09/18 11:28:01;;;;;;;3.47;2.70;;;26.40;94.20;;;;;;5027666;28;20198;-85
2021/09/18 11:30:52;;;;;;;3.00;2.80;;;26.60;95.70;;;;;;5026189;28;20175;-82
2021/09/18 11:33:20;;;;;;;2.60;2.30;;;26.70;93.30;;;;;;5027746;28;20254;-82
2021/09/18 11:35:57;;;;;;;3.57;2.50;;;27.10;95.50;;;;;;5027263;28;20279;-82
2021/09/18 11:38:31;;;;;;;3.20;2.50;;;26.90;92.80;;;;;;5027638;28;20189;-82
2021/09/18 11:41:08;;;;;;;2.60;2.40;;;27.10;92.40;;;;;;5027520;28;20649;-83
2021/09/18 11:43:35;;;;;;;2.73;2.30;;;26.80;95.20;;;;;;5028882;28;20182;-84
2021/09/18 11:46:01;;;;;;;2.40;2.20;;;27.00;92.10;;;;;;5024070;28;20212;-82
2021/09/18 11:48:29;;;;;;;5.10;2.43;;;27.20;91.10;;;;;;5025504;28;20181;-81
2021/09/18 11:50:55;;;;;;;5.43;1.83;;;27.30;92.30;;;;;;5041005;28;20179;-81
2021/09/18 11:53:21;;;;;;;2.10;1.90;;;27.90;91.10;;;;;;5041062;28;20187;-81
2021/09/18 11:55:49;;;;;;;2.13;1.93;;;28.00;91.50;;;;;;5038938;28;20216;-81
2021/09/18 11:58:16;;;;;;;1.73;1.63;;;27.60;88.20;;;;;;5041340;28;20178;-81
2021/09/18 12:01:04;;;;;;;2.20;2.00;;;26.50;91.30;;;;;;5039348;28;20206;-82
2021/09/18 12:03:35;;;;;;;3.77;2.03;;;25.00;89.40;;;;;;5041869;28;20551;-81
2021/09/18 12:06:07;;;;;;;2.40;2.00;;;23.60;93.10;;;;;;5042876;28;20203;-81
2021/09/18 12:08:35;;;;;;;3.87;2.50;;;23.80;94.40;;;;;;5041898;28;20200;-80
2021/09/18 12:11:06;;;;;;;2.17;1.87;;;25.00;95.00;;;;;;5040671;28;20176;-81
2021/09/18 12:13:33;;;;;;;2.00;1.80;;;25.90;92.90;;;;;;5038633;28;20182;-80
2021/09/18 12:16:00;;;;;;;2.40;2.20;;;26.70;91.90;;;;;;5037843;28;20206;-81
2021/09/18 12:18:56;;;;;;;1.77;1.67;;;27.20;82.30;;;;;;5037256;28;20210;-80
2021/09/18 12:21:23;;;;;;;2.30;1.90;;;27.50;84.30;;;;;;5035307;28;20222;-81
2021/09/18 12:24:01;;;;;;;3.87;2.77;;;27.60;86.60;;;;;;5035632;28;20567;-81
2021/09/18 12:26:35;;;;;;;2.17;1.97;;;27.90;89.80;;;;;;5037048;28;20612;-81
2021/09/18 12:29:08;;;;;;;2.73;2.30;;;29.00;83.30;;;;;;5037685;28;20194;-81
2021/09/18 12:31:35;;;;;;;2.40;2.20;;;29.60;78.70;;;;;;5038418;28;20633;-81
2021/09/18 12:34:10;;;;;;;2.13;1.90;;;29.60;77.60;;;;;;5039483;28;20186;-81
2021/09/18 12:36:37;;;;;;;2.63;2.00;;;29.80;80.40;;;;;;5040308;28;20208;-80
2021/09/18 12:39:06;;;;;;;2.83;1.97;;;29.60;76.00;;;;;;5042612;28;20183;-81
2021/09/18 12:41:33;;;;;;;3.80;1.90;;;27.70;76.00;;;;;;5041454;28;20170;-81
2021/09/18 12:44:08;;;;;;;4.10;1.83;;;27.20;81.30;;;;;;5041212;28;20170;-81
2021/09/18 12:46:40;;;;;;;2.17;1.97;;;27.80;78.70;;;;;;5041389;28;20193;-81
2021/09/18 12:49:06;;;;;;;2.40;2.20;;;28.80;82.60;;;;;;5040914;28;20179;-82
2021/09/18 12:51:34;;;;;;;2.50;2.13;;;29.80;72.50;;;;;;5039797;28;20268;-81
2021/09/18 12:54:00;;;;;;;1.80;1.70;;;30.30;71.10;;;;;;5037130;28;20252;-81